createdAt,value
2022-10-23T00:01:18.903Z,10.77
2022-10-23T00:03:47.349Z,10.74
2022-10-23T00:06:16.248Z,10.76
2022-10-23T00:08:44.625Z,10.72
2022-10-23T00:11:14.828Z,10.77
2022-10-23T00:13:42.884Z,10.69
2022-10-23T00:16:11.391Z,10.66
2022-10-23T00:18:41.139Z,10.65
2022-10-23T00:21:11.940Z,10.47
2022-10-23T00:23:40.483Z,10.60
2022-10-23T00:26:11.091Z,10.63
2022-10-23T00:28:39.239Z,10.60
2022-10-23T00:31:07.697Z,10.59
2022-10-23T00:33:35.925Z,10.57
2022-10-23T00:36:07.361Z,10.53
2022-10-23T00:38:36.142Z,10.50
2022-10-23T00:41:05.272Z,10.47
2022-10-23T00:43:34.122Z,10.40
2022-10-23T00:46:02.623Z,10.23
2022-10-23T00:48:30.738Z,10.08
2022-10-23T00:50:58.692Z,10.03
2022-10-23T00:53:28.081Z,10.05
2022-10-23T00:55:57.629Z,10.12
2022-10-23T00:58:25.684Z,10.18
2022-10-23T01:00:56.063Z,10.19
2022-10-23T01:03:27.236Z,10.23
2022-10-23T01:06:01.710Z,10.22
2022-10-23T01:08:35.502Z,10.26
2022-10-23T01:11:11.432Z,10.23
2022-10-23T01:13:45.650Z,10.33
2022-10-23T01:16:19.731Z,10.40
2022-10-23T01:18:55.610Z,10.43
2022-10-23T01:21:29.725Z,10.49
2022-10-23T01:24:32.151Z,10.52
2022-10-23T01:27:16.871Z,10.54
2022-10-23T01:29:47.697Z,10.60
2022-10-23T01:32:21.026Z,10.60
2022-10-23T01:34:52.943Z,10.63
2022-10-23T01:37:25.218Z,10.58
2022-10-23T01:39:56.863Z,10.60
2022-10-23T01:42:30.955Z,10.62
2022-10-23T01:45:02.893Z,10.59
2022-10-23T01:47:34.663Z,10.62
2022-10-23T01:50:04.928Z,10.60
2022-10-23T01:52:33.033Z,10.60
2022-10-23T01:55:02.333Z,10.55
2022-10-23T01:57:33.720Z,10.56
2022-10-23T02:00:04.934Z,10.57
2022-10-23T02:02:34.849Z,10.49
2022-10-23T02:05:08.557Z,10.57
2022-10-23T02:07:37.564Z,10.54
2022-10-23T02:10:07.268Z,10.50
2022-10-23T02:12:51.204Z,10.52
2022-10-23T02:15:26.327Z,10.49
2022-10-23T02:18:03.197Z,10.47
2022-10-23T02:20:38.097Z,10.26
2022-10-23T02:23:16.418Z,10.45
2022-10-23T02:25:51.397Z,10.37
2022-10-23T02:28:26.430Z,10.35
2022-10-23T02:30:56.145Z,10.22
2022-10-23T02:33:27.402Z,10.11
2022-10-23T02:35:55.646Z,10.02
2022-10-23T02:38:38.032Z,10.01
2022-10-23T02:41:18.283Z,9.98
2022-10-23T02:43:58.914Z,10.01
2022-10-23T02:46:31.338Z,10.06
2022-10-23T02:49:08.666Z,10.11
2022-10-23T02:51:45.665Z,10.14
2022-10-23T02:54:31.345Z,10.11
2022-10-23T02:57:04.343Z,10.09
2022-10-23T02:59:44.008Z,9.99
2022-10-23T03:02:20.677Z,9.93
2022-10-23T03:04:49.776Z,9.85
2022-10-23T03:07:20.885Z,9.81
2022-10-23T03:09:48.908Z,9.86
2022-10-23T03:12:16.885Z,9.93
2022-10-23T03:14:46.190Z,9.93
2022-10-23T03:17:14.175Z,9.93
2022-10-23T03:19:42.135Z,10.00
2022-10-23T03:22:10.065Z,9.83
2022-10-23T03:24:38.030Z,9.78
2022-10-23T03:27:06.040Z,9.66
2022-10-23T03:29:33.989Z,9.51
2022-10-23T03:32:03.298Z,9.49
2022-10-23T03:34:31.333Z,9.47
2022-10-23T03:36:59.294Z,9.50
2022-10-23T03:39:27.409Z,9.55
2022-10-23T03:41:55.483Z,9.58
2022-10-23T03:44:23.562Z,9.59
2022-10-23T03:46:51.582Z,9.55
2022-10-23T03:49:20.985Z,9.50
2022-10-23T03:51:52.148Z,9.41
2022-10-23T03:54:22.050Z,9.34
2022-10-23T03:56:52.518Z,9.44
2022-10-23T03:59:23.415Z,9.48
2022-10-23T04:01:51.532Z,9.49
2022-10-23T04:04:21.000Z,9.53
2022-10-23T04:06:48.968Z,9.44
2022-10-23T04:09:17.350Z,9.41
2022-10-23T04:11:45.409Z,9.35
2022-10-23T04:14:14.764Z,9.28
2022-10-23T04:16:42.908Z,9.21
2022-10-23T04:19:10.880Z,9.10
2022-10-23T04:21:40.257Z,9.17
2022-10-23T04:24:08.550Z,9.20
2022-10-23T04:26:36.525Z,9.27
2022-10-23T04:29:04.671Z,9.04
2022-10-23T04:31:32.613Z,9.22
2022-10-23T04:34:00.596Z,9.13
2022-10-23T04:36:28.580Z,9.20
2022-10-23T04:38:57.861Z,9.12
2022-10-23T04:41:25.792Z,9.03
2022-10-23T04:43:53.775Z,9.02
2022-10-23T04:46:21.792Z,9.06
2022-10-23T04:48:49.756Z,8.98
2022-10-23T04:51:17.691Z,8.95
2022-10-23T04:53:45.689Z,8.95
2022-10-23T04:56:16.450Z,8.93
2022-10-23T04:58:45.263Z,8.73
2022-10-23T05:01:13.342Z,8.86
2022-10-23T05:03:41.411Z,8.86
2022-10-23T05:06:09.438Z,8.85
2022-10-23T05:08:37.596Z,8.87
2022-10-23T05:11:06.044Z,8.83
2022-10-23T05:13:36.185Z,8.79
2022-10-23T05:16:04.435Z,8.78
2022-10-23T05:18:36.505Z,8.78
2022-10-23T05:21:11.302Z,8.79
2022-10-23T05:23:42.063Z,8.74
2022-10-23T05:26:10.061Z,8.63
2022-10-23T05:28:39.385Z,8.51
2022-10-23T05:31:07.753Z,8.38
2022-10-23T05:33:37.164Z,8.49
2022-10-23T05:36:05.737Z,8.46
2022-10-23T05:38:35.994Z,8.49
2022-10-23T05:41:04.291Z,8.56
2022-10-23T05:43:32.239Z,8.61
2022-10-23T05:46:05.577Z,8.57
2022-10-23T05:48:35.457Z,8.54
2022-10-23T05:51:05.452Z,8.48
2022-10-23T05:53:35.184Z,8.48
2022-10-23T05:56:08.380Z,8.52
2022-10-23T05:58:36.464Z,8.54
2022-10-23T06:01:08.064Z,8.56
2022-10-23T06:03:36.345Z,8.61
2022-10-23T06:06:05.483Z,8.56
2022-10-23T06:08:34.250Z,8.56
2022-10-23T06:11:07.188Z,8.49
2022-10-23T06:13:35.160Z,8.50
2022-10-23T06:16:11.478Z,8.46
2022-10-23T06:18:39.521Z,8.39
2022-10-23T06:21:08.377Z,8.40
2022-10-23T06:23:38.473Z,8.42
2022-10-23T06:26:08.216Z,8.49
2022-10-23T06:28:36.635Z,8.58
2022-10-23T06:31:06.070Z,8.53
2022-10-23T06:33:35.813Z,8.45
2022-10-23T06:36:05.458Z,8.38
2022-10-23T06:38:36.779Z,8.33
2022-10-23T06:41:05.889Z,8.34
2022-10-23T06:43:33.851Z,8.29
2022-10-23T06:46:03.306Z,8.31
2022-10-23T06:48:31.937Z,8.28
2022-10-23T06:51:05.326Z,8.28
2022-10-23T06:53:33.369Z,8.24
2022-10-23T06:56:02.106Z,8.26
2022-10-23T06:58:30.159Z,8.36
2022-10-23T07:01:01.809Z,8.34
2022-10-23T07:03:30.107Z,8.40
2022-10-23T07:06:03.008Z,8.38
2022-10-23T07:08:31.376Z,8.51
2022-10-23T07:10:59.398Z,8.58
2022-10-23T07:13:27.371Z,8.63
2022-10-23T07:15:55.368Z,8.70
2022-10-23T07:18:23.365Z,8.76
2022-10-23T07:20:58.532Z,8.81
2022-10-23T07:23:27.901Z,8.88
2022-10-23T07:25:55.941Z,8.91
2022-10-23T07:28:23.881Z,8.99
2022-10-23T07:30:57.796Z,9.03
2022-10-23T07:33:25.802Z,9.08
2022-10-23T07:35:53.834Z,9.15
2022-10-23T07:38:21.806Z,9.19
2022-10-23T07:40:51.194Z,9.26
2022-10-23T07:43:20.861Z,9.34
2022-10-23T07:45:49.792Z,9.25
2022-10-23T07:48:18.132Z,9.38
2022-10-23T07:50:46.133Z,9.49
2022-10-23T07:53:19.431Z,9.53
2022-10-23T07:55:54.973Z,9.58
2022-10-23T07:58:23.463Z,9.64
2022-10-23T08:00:56.440Z,9.69
2022-10-23T08:03:24.677Z,9.77
2022-10-23T08:05:53.701Z,9.81
2022-10-23T08:08:21.710Z,9.88
2022-10-23T08:10:50.705Z,9.98
2022-10-23T08:13:21.079Z,10.05
2022-10-23T08:15:50.747Z,10.14
2022-10-23T08:18:18.897Z,10.23
2022-10-23T08:20:48.994Z,10.31
2022-10-23T08:23:20.813Z,10.40
2022-10-23T08:25:48.969Z,10.50
2022-10-23T08:28:16.988Z,10.58
2022-10-23T08:30:46.310Z,10.70
2022-10-23T08:33:14.248Z,10.79
2022-10-23T08:35:42.225Z,10.88
2022-10-23T08:38:11.196Z,10.93
2022-10-23T08:40:39.641Z,11.07
2022-10-23T08:43:17.084Z,11.18
2022-10-23T08:45:49.603Z,11.30
2022-10-23T08:48:23.605Z,11.38
2022-10-23T08:50:57.198Z,11.52
2022-10-23T08:53:30.705Z,11.61
2022-10-23T08:56:03.498Z,11.66
2022-10-23T08:58:37.653Z,11.65
2022-10-23T09:01:27.404Z,11.76
2022-10-23T09:03:55.437Z,11.85
2022-10-23T09:06:35.022Z,11.92
2022-10-23T09:09:21.336Z,11.85
2022-10-23T09:11:58.697Z,12.01
2022-10-23T09:14:40.145Z,12.08
2022-10-23T09:17:23.894Z,12.08
2022-10-23T09:19:56.984Z,12.12
2022-10-23T09:22:24.985Z,12.09
2022-10-23T09:24:53.913Z,12.25
2022-10-23T09:27:22.257Z,12.32
2022-10-23T09:29:52.605Z,12.36
2022-10-23T09:32:34.352Z,12.38
2022-10-23T09:35:02.492Z,12.51
2022-10-23T09:37:32.602Z,12.57
2022-10-23T09:40:16.383Z,12.66
2022-10-23T09:42:55.745Z,12.75
2022-10-23T09:45:26.613Z,12.83
2022-10-23T09:48:07.482Z,13.00
2022-10-23T09:50:35.509Z,12.97
2022-10-23T09:53:03.867Z,13.05
2022-10-23T09:55:31.965Z,13.09
2022-10-23T09:58:00.021Z,13.21
2022-10-23T10:00:28.522Z,13.26
2022-10-23T10:02:59.483Z,13.30
2022-10-23T10:05:31.087Z,13.41
2022-10-23T10:08:04.612Z,13.44
2022-10-23T10:10:38.820Z,13.57
2022-10-23T10:13:23.416Z,13.64
2022-10-23T10:15:56.568Z,13.78
2022-10-23T10:18:29.633Z,13.79
2022-10-23T10:21:12.025Z,13.89
2022-10-23T10:23:48.456Z,13.96
2022-10-23T10:26:31.640Z,14.07
2022-10-23T10:29:12.142Z,14.12
2022-10-23T10:31:53.162Z,14.16
2022-10-23T10:34:29.768Z,14.20
2022-10-23T10:37:05.420Z,14.27
2022-10-23T10:39:40.441Z,14.25
2022-10-23T10:42:28.109Z,14.30
2022-10-23T10:45:08.921Z,14.44
2022-10-23T10:47:46.049Z,14.52
2022-10-23T10:50:20.229Z,14.62
2022-10-23T10:52:59.918Z,14.54
2022-10-23T10:55:34.480Z,14.64
2022-10-23T10:58:11.678Z,14.69
2022-10-23T11:00:39.734Z,14.84
2022-10-23T11:03:23.581Z,14.90
2022-10-23T11:05:54.472Z,14.99
2022-10-23T11:08:44.548Z,14.99
2022-10-23T11:11:29.275Z,14.99
2022-10-23T11:13:57.672Z,14.96
2022-10-23T11:16:29.482Z,14.93
2022-10-23T11:19:08.756Z,14.94
2022-10-23T11:21:44.403Z,15.02
2022-10-23T11:24:53.391Z,14.98
2022-10-23T11:27:39.718Z,14.99
2022-10-23T11:30:22.308Z,14.96
2022-10-23T11:33:26.612Z,15.01
2022-10-23T11:36:05.509Z,14.94
2022-10-23T11:38:35.934Z,15.01
2022-10-23T11:41:08.009Z,15.10
2022-10-23T11:43:48.342Z,15.20
2022-10-23T11:46:30.932Z,15.28
2022-10-23T11:49:02.485Z,15.37
2022-10-23T11:51:32.967Z,15.50
2022-10-23T11:54:24.685Z,15.52
2022-10-23T11:57:03.780Z,15.60
2022-10-23T11:59:33.208Z,15.71
2022-10-23T12:02:04.333Z,15.79
2022-10-23T12:04:40.700Z,15.85
2022-10-23T12:07:23.064Z,15.99
2022-10-23T12:09:55.428Z,15.95
2022-10-23T12:12:34.012Z,16.11
2022-10-23T12:15:23.576Z,16.25
2022-10-23T12:17:54.120Z,16.37
2022-10-23T12:20:31.758Z,16.46
2022-10-23T12:23:36.409Z,16.46
2022-10-23T12:26:24.340Z,16.41
2022-10-23T12:29:02.976Z,16.50
2022-10-23T12:31:45.642Z,16.41
2022-10-23T12:34:28.416Z,16.48
2022-10-23T12:37:09.967Z,16.69
2022-10-23T12:39:39.239Z,16.69
2022-10-23T12:42:17.050Z,16.60
2022-10-23T12:44:46.449Z,16.72
2022-10-23T12:47:19.352Z,16.68
2022-10-23T12:49:50.356Z,16.66
2022-10-23T12:52:20.969Z,16.65
2022-10-23T12:54:50.754Z,16.84
2022-10-23T12:57:23.204Z,16.83
2022-10-23T12:59:56.624Z,16.88
2022-10-23T13:02:26.977Z,16.81
2022-10-23T13:04:57.105Z,16.76
2022-10-23T13:07:28.934Z,16.56
2022-10-23T13:09:58.653Z,16.37
2022-10-23T13:12:29.242Z,16.29
2022-10-23T13:15:03.187Z,16.08
2022-10-23T13:17:40.631Z,16.00
2022-10-23T13:20:20.855Z,15.84
2022-10-23T13:22:56.372Z,15.79
2022-10-23T13:25:29.976Z,15.78
2022-10-23T13:28:13.298Z,15.59
2022-10-23T13:30:46.180Z,15.44
2022-10-23T13:33:24.325Z,15.43
2022-10-23T13:35:58.770Z,15.41
2022-10-23T13:38:31.436Z,15.21
2022-10-23T13:41:00.848Z,15.20
2022-10-23T13:43:30.759Z,15.10
2022-10-23T13:46:01.388Z,15.05
2022-10-23T13:48:29.840Z,14.93
2022-10-23T13:51:03.817Z,14.98
2022-10-23T13:53:31.730Z,14.97
2022-10-23T13:55:59.691Z,14.97
2022-10-23T13:58:27.694Z,14.90
2022-10-23T14:00:55.804Z,14.91
2022-10-23T14:03:25.357Z,14.98
2022-10-23T14:05:53.297Z,14.99
2022-10-23T14:08:21.274Z,15.04
2022-10-23T14:10:49.336Z,15.01
2022-10-23T14:13:17.468Z,15.04
2022-10-23T14:15:45.484Z,15.00
2022-10-23T14:18:13.536Z,14.99
2022-10-23T14:20:42.929Z,15.03
2022-10-23T14:23:10.972Z,14.95
2022-10-23T14:25:38.964Z,14.90
2022-10-23T14:28:07.014Z,14.92
2022-10-23T14:30:37.637Z,14.82
2022-10-23T14:33:05.920Z,14.80
2022-10-23T14:35:33.879Z,14.71
2022-10-23T14:38:03.257Z,14.64
2022-10-23T14:40:31.326Z,14.62
2022-10-23T14:42:59.390Z,14.55
2022-10-23T14:45:27.485Z,14.56
2022-10-23T14:47:55.483Z,14.51
2022-10-23T14:50:23.884Z,14.65
2022-10-23T14:52:52.787Z,14.60
2022-10-23T14:55:22.158Z,14.58
2022-10-23T14:57:50.217Z,14.42
2022-10-23T15:00:18.482Z,14.44
2022-10-23T15:02:46.694Z,14.37
2022-10-23T15:05:15.059Z,14.30
2022-10-23T15:07:43.033Z,14.29
2022-10-23T15:10:11.679Z,14.27
2022-10-23T15:12:41.563Z,14.06
2022-10-23T15:15:11.983Z,14.20
2022-10-23T15:17:41.479Z,14.05
2022-10-23T15:20:10.420Z,14.08
2022-10-23T15:22:38.400Z,14.03
2022-10-23T15:25:07.721Z,14.06
2022-10-23T15:27:36.066Z,14.00
2022-10-23T15:30:06.188Z,13.94
2022-10-23T15:32:34.236Z,13.92
2022-10-23T15:35:02.190Z,13.87
2022-10-23T15:37:30.145Z,13.78
2022-10-23T15:40:01.282Z,13.57
2022-10-23T15:42:30.478Z,13.64
2022-10-23T15:44:58.508Z,13.59
2022-10-23T15:47:27.870Z,13.54
2022-10-23T15:49:55.878Z,13.49
2022-10-23T15:52:23.859Z,13.45
2022-10-23T15:54:51.817Z,13.40
2022-10-23T15:57:19.789Z,13.41
2022-10-23T15:59:47.844Z,13.36
2022-10-23T16:02:15.909Z,13.33
2022-10-23T16:04:45.499Z,13.28
2022-10-23T16:07:13.497Z,13.30
2022-10-23T16:09:41.589Z,13.29
2022-10-23T16:12:09.879Z,13.21
2022-10-23T16:14:37.853Z,13.13
2022-10-23T16:17:07.540Z,13.09
2022-10-23T16:19:35.593Z,13.08
2022-10-23T16:22:05.034Z,13.11
2022-10-23T16:24:33.397Z,13.10
2022-10-23T16:27:01.837Z,13.00
2022-10-23T16:29:29.870Z,13.09
2022-10-23T16:31:59.823Z,13.05
2022-10-23T16:34:27.955Z,13.11
2022-10-23T16:36:55.926Z,13.08
2022-10-23T16:39:25.337Z,13.03
2022-10-23T16:41:53.347Z,13.05
2022-10-23T16:44:21.408Z,13.09
2022-10-23T16:46:49.357Z,13.07
2022-10-23T16:49:17.434Z,13.04
2022-10-23T16:51:45.428Z,13.05
2022-10-23T16:54:14.528Z,13.11
2022-10-23T16:56:44.916Z,13.08
2022-10-23T16:59:13.054Z,13.06
2022-10-23T17:01:42.267Z,13.07
2022-10-23T17:04:10.311Z,13.06
2022-10-23T17:06:38.579Z,13.06
2022-10-23T17:09:07.090Z,13.09
2022-10-23T17:11:36.928Z,13.05
2022-10-23T17:14:08.521Z,12.97
2022-10-23T17:16:38.857Z,12.99
2022-10-23T17:19:20.526Z,12.94
2022-10-23T17:21:57.559Z,12.90
2022-10-23T17:24:25.942Z,12.87
2022-10-23T17:26:54.657Z,12.88
2022-10-23T17:29:24.011Z,12.82
2022-10-23T17:31:52.993Z,12.79
2022-10-23T17:34:23.982Z,12.75
2022-10-23T17:36:53.331Z,12.74
2022-10-23T17:39:23.938Z,12.73
2022-10-23T17:41:52.483Z,12.75
2022-10-23T17:44:20.546Z,12.74
2022-10-23T17:46:54.301Z,12.71
2022-10-23T17:49:22.792Z,12.69
2022-10-23T17:51:53.078Z,12.68
2022-10-23T17:54:21.025Z,12.74
2022-10-23T17:56:49.037Z,12.71
2022-10-23T17:59:19.025Z,12.69
2022-10-23T18:01:48.129Z,12.64
2022-10-23T18:04:19.894Z,12.57
2022-10-23T18:06:50.591Z,12.59
2022-10-23T18:09:18.700Z,12.60
2022-10-23T18:11:48.472Z,12.60
2022-10-23T18:14:17.555Z,12.61
2022-10-23T18:16:46.541Z,12.56
2022-10-23T18:19:14.825Z,12.58
2022-10-23T18:21:44.185Z,12.59
2022-10-23T18:24:12.398Z,12.62
2022-10-23T18:26:42.536Z,12.60
2022-10-23T18:29:12.483Z,12.62
2022-10-23T18:31:41.848Z,12.65
2022-10-23T18:34:15.500Z,12.64
2022-10-23T18:36:45.432Z,12.64
2022-10-23T18:39:16.262Z,12.64
2022-10-23T18:41:46.503Z,12.63
2022-10-23T18:44:16.907Z,12.58
2022-10-23T18:46:45.341Z,12.59
2022-10-23T18:49:13.828Z,12.57
2022-10-23T18:51:42.258Z,12.54
2022-10-23T18:54:13.811Z,12.56
2022-10-23T18:56:42.080Z,12.55
2022-10-23T18:59:13.397Z,12.56
2022-10-23T19:01:42.141Z,12.54
2022-10-23T19:04:12.553Z,12.55
2022-10-23T19:06:41.149Z,12.62
2022-10-23T19:09:13.688Z,12.56
2022-10-23T19:11:42.781Z,12.67
2022-10-23T19:14:10.921Z,12.68
2022-10-23T19:16:42.091Z,12.69
2022-10-23T19:19:15.369Z,12.71
2022-10-23T19:21:43.876Z,12.74
2022-10-23T19:24:17.090Z,12.76
2022-10-23T19:26:45.649Z,12.79
2022-10-23T19:29:18.044Z,12.81
2022-10-23T19:31:49.137Z,12.86
2022-10-23T19:34:19.928Z,12.92
2022-10-23T19:36:48.246Z,12.91
2022-10-23T19:39:18.486Z,12.91
2022-10-23T19:41:46.842Z,12.93
2022-10-23T19:44:16.024Z,12.93
2022-10-23T19:46:44.128Z,12.94
2022-10-23T19:49:12.383Z,12.97
2022-10-23T19:51:40.528Z,12.98
2022-10-23T19:54:10.488Z,13.00
2022-10-23T19:56:40.253Z,13.04
2022-10-23T19:59:08.435Z,13.08
2022-10-23T20:01:36.548Z,13.08
2022-10-23T20:04:04.778Z,13.11
2022-10-23T20:06:35.331Z,13.06
2022-10-23T20:09:04.888Z,13.08
2022-10-23T20:11:33.310Z,13.10
2022-10-23T20:14:02.871Z,13.10
2022-10-23T20:16:32.866Z,13.07
2022-10-23T20:19:02.977Z,13.07
2022-10-23T20:21:31.234Z,13.06
2022-10-23T20:23:59.974Z,13.07
2022-10-23T20:26:28.136Z,13.06
2022-10-23T20:28:57.012Z,13.03
2022-10-23T20:31:28.127Z,13.00
2022-10-23T20:33:57.181Z,13.02
2022-10-23T20:36:28.113Z,13.00
2022-10-23T20:38:57.501Z,13.00
2022-10-23T20:41:28.495Z,12.97
2022-10-23T20:43:57.281Z,13.00
2022-10-23T20:46:27.071Z,13.03
2022-10-23T20:48:55.001Z,13.07
2022-10-23T20:51:25.327Z,13.01
2022-10-23T20:53:54.523Z,12.99
2022-10-23T20:56:29.844Z,12.98
2022-10-23T20:58:58.205Z,12.94
2022-10-23T21:01:28.289Z,12.94
2022-10-23T21:03:57.783Z,12.92
2022-10-23T21:06:27.535Z,12.89
2022-10-23T21:08:56.735Z,12.93
2022-10-23T21:11:25.941Z,12.92
2022-10-23T21:13:56.972Z,12.93
2022-10-23T21:16:28.713Z,12.92
2022-10-23T21:18:57.246Z,12.91
2022-10-23T21:21:25.744Z,12.90
2022-10-23T21:23:55.743Z,12.91
2022-10-23T21:26:25.140Z,12.91
2022-10-23T21:29:01.106Z,12.90
2022-10-23T21:31:43.930Z,12.92
2022-10-23T21:34:11.933Z,12.88
2022-10-23T21:37:00.182Z,12.89
2022-10-23T21:39:28.519Z,12.86
2022-10-23T21:41:56.467Z,12.90
2022-10-23T21:44:24.438Z,12.88
2022-10-23T21:46:53.809Z,12.88
2022-10-23T21:49:21.842Z,12.88
2022-10-23T21:51:49.827Z,12.85
2022-10-23T21:54:17.790Z,12.88
2022-10-23T21:56:47.768Z,12.86
2022-10-23T21:59:17.333Z,12.89
2022-10-23T22:01:47.046Z,12.89
2022-10-23T22:04:18.377Z,12.88
2022-10-23T22:06:47.780Z,12.86
2022-10-23T22:09:20.069Z,12.85
2022-10-23T22:11:49.953Z,12.85
2022-10-23T22:14:18.070Z,12.86
2022-10-23T22:16:46.142Z,12.91
2022-10-23T22:19:17.491Z,12.93
2022-10-23T22:21:45.975Z,12.91
2022-10-23T22:24:14.076Z,12.96
2022-10-23T22:26:44.717Z,13.03
2022-10-23T22:29:14.933Z,13.06
2022-10-23T22:31:45.701Z,13.09
2022-10-23T22:34:27.184Z,13.08
2022-10-23T22:37:10.728Z,13.11
2022-10-23T22:39:39.334Z,13.09
2022-10-23T22:42:07.445Z,13.07
2022-10-23T22:44:35.423Z,13.07
2022-10-23T22:47:03.383Z,13.08
2022-10-23T22:49:32.810Z,12.98
2022-10-23T22:52:00.790Z,12.97
2022-10-23T22:54:30.460Z,12.97
2022-10-23T22:56:58.562Z,13.07
2022-10-23T22:59:26.528Z,13.09
2022-10-23T23:01:54.562Z,13.12
2022-10-23T23:04:38.946Z,13.12
2022-10-23T23:07:09.446Z,13.10
2022-10-23T23:09:39.647Z,13.06
2022-10-23T23:12:09.641Z,13.07
2022-10-23T23:14:37.999Z,13.06
2022-10-23T23:17:07.346Z,13.09
2022-10-23T23:19:36.433Z,13.18
2022-10-23T23:22:05.869Z,13.21
2022-10-23T23:24:35.264Z,13.21
2022-10-23T23:27:04.130Z,13.24
2022-10-23T23:29:32.634Z,13.22
2022-10-23T23:32:01.833Z,13.23
2022-10-23T23:34:30.071Z,13.22
2022-10-23T23:36:58.076Z,13.19
2022-10-23T23:39:26.418Z,13.14
2022-10-23T23:41:55.840Z,13.17
2022-10-23T23:44:23.801Z,13.19
2022-10-23T23:46:51.824Z,13.20
2022-10-23T23:49:19.819Z,13.19
2022-10-23T23:51:47.814Z,13.16
2022-10-23T23:54:15.801Z,13.12
2022-10-23T23:56:43.733Z,13.12
2022-10-23T23:59:13.004Z,13.06
